sensor_id;sensor_type;location;lat;lon;timestamp;P1;durP1;ratioP1;P2;durP2;ratioP2
3865;SDS011;1948;53.250;10.412;2023-07-24T00:00:57;4.70;;;3.37;;
3865;SDS011;1948;53.250;10.412;2023-07-24T00:03:26;3.33;;;3.23;;
3865;SDS011;1948;53.250;10.412;2023-07-24T00:05:53;5.17;;;3.43;;
3865;SDS011;1948;53.250;10.412;2023-07-24T00:08:25;3.20;;;2.90;;
3865;SDS011;1948;53.250;10.412;2023-07-24T00:10:52;2.90;;;2.80;;
3865;SDS011;1948;53.250;10.412;2023-07-24T00:13:22;5.03;;;3.00;;
3865;SDS011;1948;53.250;10.412;2023-07-24T00:15:51;3.20;;;2.93;;
3865;SDS011;1948;53.250;10.412;2023-07-24T00:18:24;3.40;;;3.30;;
3865;SDS011;1948;53.250;10.412;2023-07-24T00:20:51;3.50;;;3.40;;
3865;SDS011;1948;53.250;10.412;2023-07-24T00:23:18;3.60;;;3.50;;
3865;SDS011;1948;53.250;10.412;2023-07-24T00:25:47;3.80;;;3.60;;
3865;SDS011;1948;53.250;10.412;2023-07-24T00:28:16;3.00;;;2.77;;
3865;SDS011;1948;53.250;10.412;2023-07-24T00:30:43;3.60;;;3.50;;
3865;SDS011;1948;53.250;10.412;2023-07-24T00:33:10;3.90;;;3.60;;
3865;SDS011;1948;53.250;10.412;2023-07-24T00:35:37;3.40;;;3.30;;
3865;SDS011;1948;53.250;10.412;2023-07-24T00:38:04;3.20;;;3.10;;
3865;SDS011;1948;53.250;10.412;2023-07-24T00:40:31;4.10;;;3.43;;
3865;SDS011;1948;53.250;10.412;2023-07-24T00:43:00;3.60;;;3.30;;
3865;SDS011;1948;53.250;10.412;2023-07-24T00:45:27;3.20;;;3.00;;
3865;SDS011;1948;53.250;10.412;2023-07-24T00:47:58;3.33;;;3.20;;
3865;SDS011;1948;53.250;10.412;2023-07-24T00:50:28;3.83;;;3.20;;
3865;SDS011;1948;53.250;10.412;2023-07-24T00:53:00;3.30;;;3.20;;
3865;SDS011;1948;53.250;10.412;2023-07-24T00:55:28;3.30;;;3.30;;
3865;SDS011;1948;53.250;10.412;2023-07-24T00:57:56;3.40;;;3.20;;
3865;SDS011;1948;53.250;10.412;2023-07-24T01:00:31;3.07;;;2.97;;
3865;SDS011;1948;53.250;10.412;2023-07-24T01:03:01;2.83;;;2.73;;
3865;SDS011;1948;53.250;10.412;2023-07-24T01:05:28;3.27;;;2.87;;
3865;SDS011;1948;53.250;10.412;2023-07-24T01:07:56;2.80;;;2.70;;
3865;SDS011;1948;53.250;10.412;2023-07-24T01:10:23;2.90;;;2.90;;
3865;SDS011;1948;53.250;10.412;2023-07-24T01:15:38;5.20;;;3.70;;
3865;SDS011;1948;53.250;10.412;2023-07-24T01:18:24;3.20;;;3.03;;
3865;SDS011;1948;53.250;10.412;2023-07-24T01:20:55;3.43;;;3.23;;
3865;SDS011;1948;53.250;10.412;2023-07-24T01:26:24;6.47;;;3.27;;
3865;SDS011;1948;53.250;10.412;2023-07-24T01:28:55;3.13;;;3.13;;
3865;SDS011;1948;53.250;10.412;2023-07-24T01:31:24;3.40;;;3.30;;
3865;SDS011;1948;53.250;10.412;2023-07-24T01:33:51;3.27;;;3.17;;
3865;SDS011;1948;53.250;10.412;2023-07-24T01:36:18;3.50;;;3.40;;
3865;SDS011;1948;53.250;10.412;2023-07-24T01:38:48;4.00;;;3.90;;
3865;SDS011;1948;53.250;10.412;2023-07-24T01:41:16;3.20;;;3.00;;
3865;SDS011;1948;53.250;10.412;2023-07-24T01:43:43;3.80;;;3.50;;
3865;SDS011;1948;53.250;10.412;2023-07-24T01:46:16;4.57;;;2.80;;
3865;SDS011;1948;53.250;10.412;2023-07-24T01:48:43;3.63;;;3.43;;
3865;SDS011;1948;53.250;10.412;2023-07-24T01:51:10;3.37;;;3.27;;
3865;SDS011;1948;53.250;10.412;2023-07-24T01:53:39;3.43;;;3.33;;
3865;SDS011;1948;53.250;10.412;2023-07-24T01:56:06;3.40;;;3.30;;
3865;SDS011;1948;53.250;10.412;2023-07-24T01:58:33;3.80;;;3.70;;
3865;SDS011;1948;53.250;10.412;2023-07-24T02:01:00;4.73;;;3.57;;
3865;SDS011;1948;53.250;10.412;2023-07-24T02:03:30;3.23;;;3.10;;
3865;SDS011;1948;53.250;10.412;2023-07-24T02:05:57;3.80;;;3.70;;
3865;SDS011;1948;53.250;10.412;2023-07-24T02:08:26;3.73;;;3.50;;
3865;SDS011;1948;53.250;10.412;2023-07-24T02:10:53;3.97;;;3.27;;
3865;SDS011;1948;53.250;10.412;2023-07-24T02:13:20;9.20;;;4.20;;
3865;SDS011;1948;53.250;10.412;2023-07-24T02:15:47;3.23;;;3.03;;
3865;SDS011;1948;53.250;10.412;2023-07-24T02:18:16;3.90;;;3.50;;
3865;SDS011;1948;53.250;10.412;2023-07-24T02:20:54;3.50;;;3.50;;
3865;SDS011;1948;53.250;10.412;2023-07-24T02:23:20;3.57;;;3.47;;
3865;SDS011;1948;53.250;10.412;2023-07-24T02:25:51;3.43;;;3.40;;
3865;SDS011;1948;53.250;10.412;2023-07-24T02:28:19;3.70;;;3.60;;
3865;SDS011;1948;53.250;10.412;2023-07-24T02:30:47;4.17;;;3.90;;
3865;SDS011;1948;53.250;10.412;2023-07-24T02:33:22;3.53;;;3.50;;
3865;SDS011;1948;53.250;10.412;2023-07-24T02:35:50;4.53;;;3.30;;
3865;SDS011;1948;53.250;10.412;2023-07-24T02:38:19;7.60;;;3.33;;
3865;SDS011;1948;53.250;10.412;2023-07-24T02:40:45;3.57;;;3.50;;
3865;SDS011;1948;53.250;10.412;2023-07-24T02:43:15;4.30;;;4.20;;
3865;SDS011;1948;53.250;10.412;2023-07-24T02:45:42;3.93;;;3.83;;
3865;SDS011;1948;53.250;10.412;2023-07-24T02:48:12;3.60;;;3.50;;
3865;SDS011;1948;53.250;10.412;2023-07-24T02:50:41;4.23;;;4.00;;
3865;SDS011;1948;53.250;10.412;2023-07-24T02:53:08;3.97;;;3.77;;
3865;SDS011;1948;53.250;10.412;2023-07-24T02:55:35;4.23;;;4.10;;
3865;SDS011;1948;53.250;10.412;2023-07-24T02:58:02;4.37;;;4.07;;
3865;SDS011;1948;53.250;10.412;2023-07-24T03:00:34;4.37;;;4.17;;
3865;SDS011;1948;53.250;10.412;2023-07-24T03:03:01;4.17;;;3.97;;
3865;SDS011;1948;53.250;10.412;2023-07-24T03:05:28;4.10;;;4.00;;
3865;SDS011;1948;53.250;10.412;2023-07-24T03:07:55;4.60;;;4.40;;
3865;SDS011;1948;53.250;10.412;2023-07-24T03:10:22;4.30;;;4.20;;
3865;SDS011;1948;53.250;10.412;2023-07-24T03:12:52;4.13;;;4.03;;
3865;SDS011;1948;53.250;10.412;2023-07-24T03:15:19;3.70;;;3.60;;
3865;SDS011;1948;53.250;10.412;2023-07-24T03:17:46;5.60;;;4.33;;
3865;SDS011;1948;53.250;10.412;2023-07-24T03:20:14;4.90;;;4.80;;
3865;SDS011;1948;53.250;10.412;2023-07-24T03:22:47;4.40;;;4.10;;
3865;SDS011;1948;53.250;10.412;2023-07-24T03:25:14;4.67;;;4.47;;
3865;SDS011;1948;53.250;10.412;2023-07-24T03:27:41;5.10;;;4.60;;
3865;SDS011;1948;53.250;10.412;2023-07-24T03:30:10;4.80;;;4.60;;
3865;SDS011;1948;53.250;10.412;2023-07-24T03:32:39;4.63;;;4.53;;
3865;SDS011;1948;53.250;10.412;2023-07-24T03:35:09;4.37;;;4.07;;
3865;SDS011;1948;53.250;10.412;2023-07-24T03:37:36;5.03;;;4.43;;
3865;SDS011;1948;53.250;10.412;2023-07-24T03:40:05;4.50;;;4.23;;
3865;SDS011;1948;53.250;10.412;2023-07-24T03:42:33;5.53;;;5.20;;
3865;SDS011;1948;53.250;10.412;2023-07-24T03:45:00;17.17;;;4.70;;
3865;SDS011;1948;53.250;10.412;2023-07-24T03:47:29;5.07;;;4.67;;
3865;SDS011;1948;53.250;10.412;2023-07-24T03:49:59;4.87;;;4.63;;
3865;SDS011;1948;53.250;10.412;2023-07-24T03:52:26;5.17;;;4.70;;
3865;SDS011;1948;53.250;10.412;2023-07-24T03:54:55;5.80;;;5.30;;
3865;SDS011;1948;53.250;10.412;2023-07-24T03:57:22;5.43;;;5.03;;
3865;SDS011;1948;53.250;10.412;2023-07-24T03:59:51;5.07;;;4.77;;
3865;SDS011;1948;53.250;10.412;2023-07-24T04:02:18;5.03;;;4.70;;
3865;SDS011;1948;53.250;10.412;2023-07-24T04:04:48;5.43;;;4.93;;
3865;SDS011;1948;53.250;10.412;2023-07-24T04:07:15;4.90;;;4.50;;
3865;SDS011;1948;53.250;10.412;2023-07-24T04:09:45;4.83;;;4.63;;
3865;SDS011;1948;53.250;10.412;2023-07-24T04:12:12;4.97;;;4.87;;
3865;SDS011;1948;53.250;10.412;2023-07-24T04:14:38;4.70;;;4.57;;
3865;SDS011;1948;53.250;10.412;2023-07-24T04:17:09;5.17;;;4.87;;
3865;SDS011;1948;53.250;10.412;2023-07-24T04:19:36;4.33;;;4.20;;
3865;SDS011;1948;53.250;10.412;2023-07-24T04:22:03;5.07;;;4.80;;
3865;SDS011;1948;53.250;10.412;2023-07-24T04:24:34;4.90;;;4.70;;
3865;SDS011;1948;53.250;10.412;2023-07-24T04:27:01;4.60;;;4.40;;
3865;SDS011;1948;53.250;10.412;2023-07-24T04:29:29;4.47;;;4.27;;
3865;SDS011;1948;53.250;10.412;2023-07-24T04:31:58;4.60;;;4.30;;
3865;SDS011;1948;53.250;10.412;2023-07-24T04:34:25;5.13;;;4.83;;
3865;SDS011;1948;53.250;10.412;2023-07-24T04:36:52;5.40;;;5.00;;
3865;SDS011;1948;53.250;10.412;2023-07-24T04:39:21;5.10;;;4.70;;
3865;SDS011;1948;53.250;10.412;2023-07-24T04:41:51;5.37;;;5.00;;
3865;SDS011;1948;53.250;10.412;2023-07-24T04:44:18;5.00;;;4.73;;
3865;SDS011;1948;53.250;10.412;2023-07-24T04:46:50;4.87;;;4.60;;
3865;SDS011;1948;53.250;10.412;2023-07-24T04:49:20;5.07;;;4.53;;
3865;SDS011;1948;53.250;10.412;2023-07-24T04:51:47;4.87;;;4.43;;
3865;SDS011;1948;53.250;10.412;2023-07-24T04:54:14;7.03;;;4.83;;
3865;SDS011;1948;53.250;10.412;2023-07-24T04:56:41;4.93;;;4.63;;
3865;SDS011;1948;53.250;10.412;2023-07-24T04:59:12;5.07;;;4.80;;
3865;SDS011;1948;53.250;10.412;2023-07-24T05:01:39;5.10;;;4.70;;
3865;SDS011;1948;53.250;10.412;2023-07-24T05:04:06;5.77;;;5.03;;
3865;SDS011;1948;53.250;10.412;2023-07-24T05:06:39;5.27;;;5.07;;
3865;SDS011;1948;53.250;10.412;2023-07-24T05:09:06;4.70;;;4.60;;
3865;SDS011;1948;53.250;10.412;2023-07-24T05:11:33;5.47;;;5.13;;
3865;SDS011;1948;53.250;10.412;2023-07-24T05:14:00;6.13;;;4.50;;
3865;SDS011;1948;53.250;10.412;2023-07-24T05:16:27;5.03;;;4.43;;
3865;SDS011;1948;53.250;10.412;2023-07-24T05:18:54;6.53;;;5.13;;
3865;SDS011;1948;53.250;10.412;2023-07-24T05:21:21;7.90;;;5.07;;
3865;SDS011;1948;53.250;10.412;2023-07-24T05:23:48;8.20;;;5.27;;
3865;SDS011;1948;53.250;10.412;2023-07-24T05:26:15;4.87;;;4.67;;
3865;SDS011;1948;53.250;10.412;2023-07-24T05:28:42;4.83;;;4.60;;
3865;SDS011;1948;53.250;10.412;2023-07-24T05:31:09;4.30;;;4.20;;
3865;SDS011;1948;53.250;10.412;2023-07-24T05:33:41;4.60;;;4.40;;
3865;SDS011;1948;53.250;10.412;2023-07-24T05:36:10;4.70;;;4.50;;
3865;SDS011;1948;53.250;10.412;2023-07-24T05:38:40;5.23;;;4.73;;
3865;SDS011;1948;53.250;10.412;2023-07-24T05:41:09;4.50;;;4.27;;
3865;SDS011;1948;53.250;10.412;2023-07-24T05:43:36;4.90;;;4.40;;
3865;SDS011;1948;53.250;10.412;2023-07-24T05:46:03;4.80;;;4.60;;
3865;SDS011;1948;53.250;10.412;2023-07-24T05:48:30;5.07;;;4.00;;
3865;SDS011;1948;53.250;10.412;2023-07-24T05:50:57;4.37;;;4.27;;
3865;SDS011;1948;53.250;10.412;2023-07-24T05:53:24;4.57;;;4.27;;
3865;SDS011;1948;53.250;10.412;2023-07-24T05:56:00;5.83;;;4.50;;
3865;SDS011;1948;53.250;10.412;2023-07-24T05:58:29;12.33;;;3.67;;
3865;SDS011;1948;53.250;10.412;2023-07-24T06:00:56;4.30;;;4.20;;
3865;SDS011;1948;53.250;10.412;2023-07-24T06:03:26;3.97;;;3.50;;
3865;SDS011;1948;53.250;10.412;2023-07-24T06:05:55;4.63;;;4.23;;
3865;SDS011;1948;53.250;10.412;2023-07-24T06:08:22;3.40;;;3.40;;
3865;SDS011;1948;53.250;10.412;2023-07-24T06:10:52;4.23;;;3.87;;
3865;SDS011;1948;53.250;10.412;2023-07-24T06:13:19;7.47;;;3.87;;
3865;SDS011;1948;53.250;10.412;2023-07-24T06:15:49;3.50;;;3.40;;
3865;SDS011;1948;53.250;10.412;2023-07-24T06:18:18;3.17;;;3.00;;
3865;SDS011;1948;53.250;10.412;2023-07-24T06:20:46;3.60;;;3.40;;
3865;SDS011;1948;53.250;10.412;2023-07-24T06:23:18;4.23;;;3.77;;
3865;SDS011;1948;53.250;10.412;2023-07-24T06:25:47;3.90;;;3.80;;
3865;SDS011;1948;53.250;10.412;2023-07-24T06:28:14;3.63;;;3.53;;
3865;SDS011;1948;53.250;10.412;2023-07-24T06:30:44;4.23;;;4.03;;
3865;SDS011;1948;53.250;10.412;2023-07-24T06:33:11;4.00;;;3.80;;
3865;SDS011;1948;53.250;10.412;2023-07-24T06:35:41;3.73;;;3.73;;
3865;SDS011;1948;53.250;10.412;2023-07-24T06:38:07;3.87;;;3.87;;
3865;SDS011;1948;53.250;10.412;2023-07-24T06:40:37;5.20;;;4.80;;
3865;SDS011;1948;53.250;10.412;2023-07-24T06:43:12;4.13;;;4.03;;
3865;SDS011;1948;53.250;10.412;2023-07-24T06:45:41;5.40;;;5.00;;
3865;SDS011;1948;53.250;10.412;2023-07-24T06:48:11;4.43;;;4.23;;
3865;SDS011;1948;53.250;10.412;2023-07-24T06:50:38;5.90;;;5.43;;
3865;SDS011;1948;53.250;10.412;2023-07-24T06:53:05;6.40;;;5.80;;
3865;SDS011;1948;53.250;10.412;2023-07-24T06:55:35;5.63;;;5.23;;
3865;SDS011;1948;53.250;10.412;2023-07-24T06:58:06;7.60;;;6.20;;
3865;SDS011;1948;53.250;10.412;2023-07-24T07:00:38;6.87;;;6.47;;
3865;SDS011;1948;53.250;10.412;2023-07-24T07:03:05;5.70;;;5.50;;
3865;SDS011;1948;53.250;10.412;2023-07-24T07:05:32;7.10;;;6.27;;
3865;SDS011;1948;53.250;10.412;2023-07-24T07:07:59;10.27;;;5.93;;
3865;SDS011;1948;53.250;10.412;2023-07-24T07:10:26;6.53;;;6.33;;
3865;SDS011;1948;53.250;10.412;2023-07-24T07:12:53;6.90;;;6.00;;
3865;SDS011;1948;53.250;10.412;2023-07-24T07:15:21;10.60;;;6.27;;
3865;SDS011;1948;53.250;10.412;2023-07-24T07:17:48;7.13;;;6.53;;
3865;SDS011;1948;53.250;10.412;2023-07-24T07:20:15;9.87;;;6.97;;
3865;SDS011;1948;53.250;10.412;2023-07-24T07:22:45;7.10;;;6.70;;
3865;SDS011;1948;53.250;10.412;2023-07-24T07:25:16;9.00;;;7.00;;
3865;SDS011;1948;53.250;10.412;2023-07-24T07:27:46;13.33;;;7.43;;
3865;SDS011;1948;53.250;10.412;2023-07-24T07:30:15;9.73;;;7.70;;
3865;SDS011;1948;53.250;10.412;2023-07-24T07:32:42;7.33;;;6.87;;
3865;SDS011;1948;53.250;10.412;2023-07-24T07:35:09;9.93;;;7.40;;
3865;SDS011;1948;53.250;10.412;2023-07-24T07:37:39;7.63;;;6.80;;
3865;SDS011;1948;53.250;10.412;2023-07-24T07:40:07;8.27;;;7.70;;
3865;SDS011;1948;53.250;10.412;2023-07-24T07:42:34;7.90;;;7.50;;
3865;SDS011;1948;53.250;10.412;2023-07-24T07:45:04;8.73;;;7.80;;
3865;SDS011;1948;53.250;10.412;2023-07-24T07:47:32;9.57;;;8.77;;
3865;SDS011;1948;53.250;10.412;2023-07-24T07:49:59;10.50;;;8.53;;
3865;SDS011;1948;53.250;10.412;2023-07-24T07:52:26;8.10;;;7.60;;
3865;SDS011;1948;53.250;10.412;2023-07-24T07:54:56;8.93;;;8.13;;
3865;SDS011;1948;53.250;10.412;2023-07-24T07:57:27;8.83;;;8.37;;
3865;SDS011;1948;53.250;10.412;2023-07-24T07:59:57;11.20;;;10.20;;
3865;SDS011;1948;53.250;10.412;2023-07-24T08:02:24;12.70;;;9.30;;
3865;SDS011;1948;53.250;10.412;2023-07-24T08:04:51;15.93;;;9.70;;
3865;SDS011;1948;53.250;10.412;2023-07-24T08:07:30;10.53;;;9.47;;
3865;SDS011;1948;53.250;10.412;2023-07-24T08:09:59;11.33;;;10.20;;
3865;SDS011;1948;53.250;10.412;2023-07-24T08:12:27;13.70;;;10.20;;
3865;SDS011;1948;53.250;10.412;2023-07-24T08:14:54;11.10;;;9.90;;
3865;SDS011;1948;53.250;10.412;2023-07-24T08:17:22;12.30;;;9.67;;
3865;SDS011;1948;53.250;10.412;2023-07-24T08:19:50;9.67;;;8.80;;
3865;SDS011;1948;53.250;10.412;2023-07-24T08:22:20;9.73;;;8.80;;
3865;SDS011;1948;53.250;10.412;2023-07-24T08:24:48;9.80;;;8.87;;
3865;SDS011;1948;53.250;10.412;2023-07-24T08:27:22;9.23;;;8.30;;
3865;SDS011;1948;53.250;10.412;2023-07-24T08:29:51;8.13;;;7.43;;
3865;SDS011;1948;53.250;10.412;2023-07-24T08:32:21;6.97;;;6.30;;
3865;SDS011;1948;53.250;10.412;2023-07-24T08:34:48;6.37;;;6.00;;
3865;SDS011;1948;53.250;10.412;2023-07-24T08:37:15;6.00;;;5.70;;
3865;SDS011;1948;53.250;10.412;2023-07-24T08:39:44;5.93;;;5.50;;
3865;SDS011;1948;53.250;10.412;2023-07-24T08:42:12;11.47;;;6.70;;
3865;SDS011;1948;53.250;10.412;2023-07-24T08:44:39;6.27;;;5.80;;
3865;SDS011;1948;53.250;10.412;2023-07-24T08:47:10;6.37;;;6.07;;
3865;SDS011;1948;53.250;10.412;2023-07-24T08:49:40;6.67;;;6.17;;
3865;SDS011;1948;53.250;10.412;2023-07-24T08:52:09;4.87;;;4.60;;
3865;SDS011;1948;53.250;10.412;2023-07-24T08:54:52;4.13;;;4.03;;
3865;SDS011;1948;53.250;10.412;2023-07-24T08:57:26;4.20;;;4.00;;
3865;SDS011;1948;53.250;10.412;2023-07-24T08:59:53;5.80;;;4.27;;
3865;SDS011;1948;53.250;10.412;2023-07-24T09:02:22;4.97;;;3.80;;
3865;SDS011;1948;53.250;10.412;2023-07-24T09:04:54;3.80;;;3.60;;
3865;SDS011;1948;53.250;10.412;2023-07-24T09:07:24;3.43;;;3.30;;
3865;SDS011;1948;53.250;10.412;2023-07-24T09:09:56;3.67;;;3.57;;
3865;SDS011;1948;53.250;10.412;2023-07-24T09:12:23;5.97;;;4.80;;
3865;SDS011;1948;53.250;10.412;2023-07-24T09:15:00;4.50;;;4.30;;
3865;SDS011;1948;53.250;10.412;2023-07-24T09:17:33;4.30;;;4.10;;
3865;SDS011;1948;53.250;10.412;2023-07-24T09:20:01;4.20;;;3.90;;
3865;SDS011;1948;53.250;10.412;2023-07-24T09:22:30;4.47;;;4.23;;
3865;SDS011;1948;53.250;10.412;2023-07-24T09:24:59;4.63;;;4.33;;
3865;SDS011;1948;53.250;10.412;2023-07-24T09:27:31;4.10;;;3.90;;
3865;SDS011;1948;53.250;10.412;2023-07-24T09:30:11;4.57;;;4.37;;
3865;SDS011;1948;53.250;10.412;2023-07-24T09:32:41;3.20;;;3.20;;
3865;SDS011;1948;53.250;10.412;2023-07-24T09:35:18;4.30;;;3.00;;
3865;SDS011;1948;53.250;10.412;2023-07-24T09:37:46;2.80;;;2.60;;
3865;SDS011;1948;53.250;10.412;2023-07-24T09:40:16;3.80;;;3.70;;
3865;SDS011;1948;53.250;10.412;2023-07-24T09:42:43;3.30;;;3.20;;
3865;SDS011;1948;53.250;10.412;2023-07-24T09:45:30;3.43;;;3.33;;
3865;SDS011;1948;53.250;10.412;2023-07-24T09:48:01;3.30;;;3.20;;
3865;SDS011;1948;53.250;10.412;2023-07-24T09:50:35;3.37;;;3.27;;
3865;SDS011;1948;53.250;10.412;2023-07-24T09:53:04;3.57;;;3.13;;
3865;SDS011;1948;53.250;10.412;2023-07-24T09:56:12;3.20;;;3.00;;
3865;SDS011;1948;53.250;10.412;2023-07-24T09:58:37;3.83;;;2.90;;
3865;SDS011;1948;53.250;10.412;2023-07-24T10:01:05;2.70;;;2.60;;
3865;SDS011;1948;53.250;10.412;2023-07-24T10:03:39;2.97;;;2.87;;
3865;SDS011;1948;53.250;10.412;2023-07-24T10:06:15;2.33;;;2.23;;
3865;SDS011;1948;53.250;10.412;2023-07-24T10:08:45;3.20;;;3.00;;
3865;SDS011;1948;53.250;10.412;2023-07-24T10:11:15;2.93;;;2.83;;
3865;SDS011;1948;53.250;10.412;2023-07-24T10:13:49;2.50;;;2.50;;
3865;SDS011;1948;53.250;10.412;2023-07-24T10:16:17;2.40;;;2.40;;
3865;SDS011;1948;53.250;10.412;2023-07-24T10:18:47;2.77;;;2.77;;
3865;SDS011;1948;53.250;10.412;2023-07-24T10:21:15;3.30;;;3.20;;
3865;SDS011;1948;53.250;10.412;2023-07-24T10:23:46;3.00;;;2.90;;
3865;SDS011;1948;53.250;10.412;2023-07-24T10:26:14;3.03;;;2.93;;
3865;SDS011;1948;53.250;10.412;2023-07-24T10:28:43;2.77;;;2.77;;
3865;SDS011;1948;53.250;10.412;2023-07-24T10:31:23;2.90;;;2.90;;
3865;SDS011;1948;53.250;10.412;2023-07-24T10:34:03;33.80;;;5.73;;
3865;SDS011;1948;53.250;10.412;2023-07-24T10:36:34;3.70;;;3.40;;
3865;SDS011;1948;53.250;10.412;2023-07-24T10:39:03;3.10;;;3.00;;
3865;SDS011;1948;53.250;10.412;2023-07-24T10:41:44;4.03;;;3.93;;
3865;SDS011;1948;53.250;10.412;2023-07-24T10:44:12;3.23;;;3.23;;
3865;SDS011;1948;53.250;10.412;2023-07-24T10:46:41;3.43;;;3.23;;
3865;SDS011;1948;53.250;10.412;2023-07-24T10:49:09;3.87;;;3.67;;
3865;SDS011;1948;53.250;10.412;2023-07-24T10:51:36;3.90;;;3.50;;
3865;SDS011;1948;53.250;10.412;2023-07-24T10:54:04;6.63;;;3.63;;
3865;SDS011;1948;53.250;10.412;2023-07-24T10:56:34;8.17;;;3.00;;
3865;SDS011;1948;53.250;10.412;2023-07-24T10:59:04;9.13;;;3.90;;
3865;SDS011;1948;53.250;10.412;2023-07-24T11:01:31;5.70;;;3.40;;
3865;SDS011;1948;53.250;10.412;2023-07-24T11:04:00;3.90;;;2.97;;
3865;SDS011;1948;53.250;10.412;2023-07-24T11:06:29;3.77;;;3.67;;
3865;SDS011;1948;53.250;10.412;2023-07-24T11:08:57;3.60;;;3.50;;
3865;SDS011;1948;53.250;10.412;2023-07-24T11:11:29;3.73;;;3.17;;
3865;SDS011;1948;53.250;10.412;2023-07-24T11:14:00;3.73;;;3.63;;
3865;SDS011;1948;53.250;10.412;2023-07-24T11:16:28;4.47;;;4.17;;
3865;SDS011;1948;53.250;10.412;2023-07-24T11:19:00;4.10;;;3.87;;
3865;SDS011;1948;53.250;10.412;2023-07-24T11:21:27;3.70;;;3.60;;
3865;SDS011;1948;53.250;10.412;2023-07-24T11:23:56;4.37;;;4.07;;
3865;SDS011;1948;53.250;10.412;2023-07-24T11:26:24;3.30;;;3.20;;
3865;SDS011;1948;53.250;10.412;2023-07-24T11:28:52;3.47;;;3.37;;
3865;SDS011;1948;53.250;10.412;2023-07-24T11:31:20;3.80;;;3.70;;
3865;SDS011;1948;53.250;10.412;2023-07-24T11:33:51;4.10;;;3.73;;
3865;SDS011;1948;53.250;10.412;2023-07-24T11:36:19;4.23;;;4.10;;
3865;SDS011;1948;53.250;10.412;2023-07-24T11:38:48;8.70;;;4.10;;
3865;SDS011;1948;53.250;10.412;2023-07-24T11:41:15;4.30;;;4.13;;
3865;SDS011;1948;53.250;10.412;2023-07-24T11:43:48;3.80;;;2.90;;
3865;SDS011;1948;53.250;10.412;2023-07-24T11:46:22;3.80;;;3.80;;
3865;SDS011;1948;53.250;10.412;2023-07-24T11:48:54;3.00;;;2.90;;
3865;SDS011;1948;53.250;10.412;2023-07-24T11:51:26;3.00;;;3.00;;
3865;SDS011;1948;53.250;10.412;2023-07-24T11:54:08;4.07;;;3.43;;
3865;SDS011;1948;53.250;10.412;2023-07-24T11:56:40;3.23;;;3.13;;
3865;SDS011;1948;53.250;10.412;2023-07-24T12:01:45;4.00;;;3.10;;
3865;SDS011;1948;53.250;10.412;2023-07-24T12:04:17;3.57;;;3.37;;
3865;SDS011;1948;53.250;10.412;2023-07-24T12:06:45;3.00;;;3.00;;
3865;SDS011;1948;53.250;10.412;2023-07-24T12:09:12;5.07;;;3.07;;
3865;SDS011;1948;53.250;10.412;2023-07-24T12:11:44;2.17;;;2.17;;
3865;SDS011;1948;53.250;10.412;2023-07-24T12:14:18;2.53;;;2.53;;
3865;SDS011;1948;53.250;10.412;2023-07-24T12:16:44;1.87;;;1.87;;
3865;SDS011;1948;53.250;10.412;2023-07-24T12:19:14;2.33;;;2.33;;
3865;SDS011;1948;53.250;10.412;2023-07-24T12:21:45;2.20;;;2.20;;
3865;SDS011;1948;53.250;10.412;2023-07-24T12:24:14;5.97;;;2.73;;
3865;SDS011;1948;53.250;10.412;2023-07-24T12:26:41;3.57;;;2.60;;
3865;SDS011;1948;53.250;10.412;2023-07-24T12:29:11;2.30;;;2.30;;
3865;SDS011;1948;53.250;10.412;2023-07-24T12:31:40;3.43;;;1.73;;
3865;SDS011;1948;53.250;10.412;2023-07-24T12:34:09;2.00;;;1.90;;
3865;SDS011;1948;53.250;10.412;2023-07-24T12:36:36;2.97;;;2.40;;
3865;SDS011;1948;53.250;10.412;2023-07-24T12:39:03;4.73;;;2.30;;
3865;SDS011;1948;53.250;10.412;2023-07-24T12:41:34;3.63;;;2.13;;
3865;SDS011;1948;53.250;10.412;2023-07-24T12:44:04;2.23;;;2.23;;
3865;SDS011;1948;53.250;10.412;2023-07-24T12:46:31;2.50;;;2.40;;
3865;SDS011;1948;53.250;10.412;2023-07-24T12:49:02;1.90;;;1.80;;
3865;SDS011;1948;53.250;10.412;2023-07-24T12:51:34;1.80;;;1.80;;
3865;SDS011;1948;53.250;10.412;2023-07-24T12:54:01;3.23;;;2.10;;
3865;SDS011;1948;53.250;10.412;2023-07-24T12:56:41;1.90;;;1.80;;
3865;SDS011;1948;53.250;10.412;2023-07-24T12:59:10;2.07;;;2.07;;
3865;SDS011;1948;53.250;10.412;2023-07-24T13:01:40;2.40;;;1.87;;
3865;SDS011;1948;53.250;10.412;2023-07-24T13:04:09;1.87;;;1.80;;
3865;SDS011;1948;53.250;10.412;2023-07-24T13:06:38;1.90;;;1.90;;
3865;SDS011;1948;53.250;10.412;2023-07-24T13:09:05;1.67;;;1.67;;
3865;SDS011;1948;53.250;10.412;2023-07-24T13:11:35;1.57;;;1.57;;
3865;SDS011;1948;53.250;10.412;2023-07-24T13:14:04;1.70;;;1.70;;
3865;SDS011;1948;53.250;10.412;2023-07-24T13:16:34;4.00;;;2.20;;
3865;SDS011;1948;53.250;10.412;2023-07-24T13:19:03;2.63;;;1.90;;
3865;SDS011;1948;53.250;10.412;2023-07-24T13:21:31;3.43;;;1.60;;
3865;SDS011;1948;53.250;10.412;2023-07-24T13:23:58;1.53;;;1.53;;
3865;SDS011;1948;53.250;10.412;2023-07-24T13:26:25;1.57;;;1.57;;
3865;SDS011;1948;53.250;10.412;2023-07-24T13:28:57;5.10;;;1.70;;
3865;SDS011;1948;53.250;10.412;2023-07-24T13:31:24;2.10;;;1.87;;
3865;SDS011;1948;53.250;10.412;2023-07-24T13:33:57;3.10;;;2.40;;
3865;SDS011;1948;53.250;10.412;2023-07-24T13:36:24;1.43;;;1.43;;
3865;SDS011;1948;53.250;10.412;2023-07-24T13:38:51;2.10;;;2.00;;
3865;SDS011;1948;53.250;10.412;2023-07-24T13:41:18;2.23;;;2.13;;
3865;SDS011;1948;53.250;10.412;2023-07-24T13:43:51;2.00;;;2.00;;
3865;SDS011;1948;53.250;10.412;2023-07-24T13:46:22;2.33;;;2.10;;
3865;SDS011;1948;53.250;10.412;2023-07-24T13:48:52;2.33;;;2.20;;
3865;SDS011;1948;53.250;10.412;2023-07-24T13:51:19;2.43;;;2.33;;
3865;SDS011;1948;53.250;10.412;2023-07-24T13:53:46;2.40;;;2.40;;
3865;SDS011;1948;53.250;10.412;2023-07-24T13:56:15;2.67;;;2.67;;
3865;SDS011;1948;53.250;10.412;2023-07-24T13:58:43;2.70;;;2.53;;
3865;SDS011;1948;53.250;10.412;2023-07-24T14:01:10;2.80;;;2.70;;
3865;SDS011;1948;53.250;10.412;2023-07-24T14:03:39;8.23;;;2.60;;
3865;SDS011;1948;53.250;10.412;2023-07-24T14:06:07;3.30;;;3.20;;
3865;SDS011;1948;53.250;10.412;2023-07-24T14:08:33;7.90;;;6.00;;
3865;SDS011;1948;53.250;10.412;2023-07-24T14:11:01;3.20;;;3.10;;
3865;SDS011;1948;53.250;10.412;2023-07-24T14:13:31;3.10;;;3.10;;
3865;SDS011;1948;53.250;10.412;2023-07-24T14:15:58;2.50;;;2.50;;
3865;SDS011;1948;53.250;10.412;2023-07-24T14:18:25;2.90;;;2.80;;
3865;SDS011;1948;53.250;10.412;2023-07-24T14:20:52;3.53;;;3.43;;
3865;SDS011;1948;53.250;10.412;2023-07-24T14:23:21;3.20;;;3.00;;
3865;SDS011;1948;53.250;10.412;2023-07-24T14:25:49;3.20;;;3.00;;
3865;SDS011;1948;53.250;10.412;2023-07-24T14:28:15;3.10;;;3.10;;
3865;SDS011;1948;53.250;10.412;2023-07-24T14:30:42;2.90;;;2.80;;
3865;SDS011;1948;53.250;10.412;2023-07-24T14:33:09;4.03;;;3.70;;
3865;SDS011;1948;53.250;10.412;2023-07-24T14:35:40;2.90;;;2.70;;
3865;SDS011;1948;53.250;10.412;2023-07-24T14:38:06;4.00;;;3.07;;
3865;SDS011;1948;53.250;10.412;2023-07-24T14:40:33;2.77;;;2.77;;
3865;SDS011;1948;53.250;10.412;2023-07-24T14:43:03;3.63;;;3.33;;
3865;SDS011;1948;53.250;10.412;2023-07-24T14:45:33;4.13;;;4.03;;
3865;SDS011;1948;53.250;10.412;2023-07-24T14:48:02;6.53;;;3.50;;
3865;SDS011;1948;53.250;10.412;2023-07-24T14:50:35;4.40;;;3.60;;
3865;SDS011;1948;53.250;10.412;2023-07-24T14:53:04;3.70;;;3.50;;
3865;SDS011;1948;53.250;10.412;2023-07-24T14:55:33;3.40;;;3.30;;
3865;SDS011;1948;53.250;10.412;2023-07-24T14:58:05;5.23;;;3.10;;
3865;SDS011;1948;53.250;10.412;2023-07-24T15:00:32;3.90;;;3.60;;
3865;SDS011;1948;53.250;10.412;2023-07-24T15:02:59;3.27;;;3.17;;
3865;SDS011;1948;53.250;10.412;2023-07-24T15:05:26;4.07;;;3.40;;
3865;SDS011;1948;53.250;10.412;2023-07-24T15:07:53;4.23;;;4.00;;
3865;SDS011;1948;53.250;10.412;2023-07-24T15:10:20;3.97;;;3.67;;
3865;SDS011;1948;53.250;10.412;2023-07-24T15:12:50;4.43;;;4.23;;
3865;SDS011;1948;53.250;10.412;2023-07-24T15:15:17;4.10;;;3.77;;
3865;SDS011;1948;53.250;10.412;2023-07-24T15:17:46;7.13;;;3.70;;
3865;SDS011;1948;53.250;10.412;2023-07-24T15:20:13;3.80;;;3.40;;